createdAt,value
2019-04-11T00:00:35.795Z,3.80
2019-04-11T00:03:05.363Z,4.63
2019-04-11T00:05:34.931Z,4.63
2019-04-11T00:08:03.964Z,4.23
2019-04-11T00:10:33.349Z,4.50
2019-04-11T00:13:14.286Z,4.47
2019-04-11T00:15:32.806Z,4.67
2019-04-11T00:18:02.716Z,4.37
2019-04-11T00:20:31.871Z,4.57
2019-04-11T00:23:01.694Z,4.90
2019-04-11T00:25:31.593Z,4.53
2019-04-11T00:28:01.580Z,4.33
2019-04-11T00:30:30.753Z,4.40
2019-04-11T00:33:00.167Z,4.10
2019-04-11T00:35:28.775Z,4.10
2019-04-11T00:37:57.244Z,3.97
2019-04-11T00:40:26.999Z,4.57
2019-04-11T00:42:56.777Z,4.30
2019-04-11T00:45:25.430Z,5.00
2019-04-11T00:47:53.960Z,4.30
2019-04-11T00:50:23.268Z,4.20
2019-04-11T00:52:52.408Z,4.20
2019-04-11T00:55:21.746Z,4.50
2019-04-11T00:57:50.374Z,4.50
2019-04-11T01:00:19.044Z,4.40
2019-04-11T01:02:47.516Z,4.50
2019-04-11T01:05:17.141Z,4.67
2019-04-11T01:07:45.761Z,4.40
2019-04-11T01:10:14.560Z,4.13
2019-04-11T01:12:43.052Z,4.23
2019-04-11T01:15:13.580Z,4.50
2019-04-11T01:17:42.001Z,4.53
2019-04-11T01:20:11.256Z,4.87
2019-04-11T01:22:40.503Z,4.73
2019-04-11T01:25:09.105Z,4.30
2019-04-11T01:27:39.436Z,5.23
2019-04-11T01:30:10.117Z,4.63
2019-04-11T01:32:38.924Z,4.20
2019-04-11T01:35:07.408Z,4.20
2019-04-11T01:37:36.837Z,4.43
2019-04-11T01:40:05.581Z,4.60
2019-04-11T01:42:35.535Z,4.97
2019-04-11T01:45:05.396Z,4.50
2019-04-11T01:47:53.246Z,4.47
2019-04-11T01:50:25.189Z,4.57
2019-04-11T01:52:54.993Z,4.73
2019-04-11T01:55:24.216Z,4.27
2019-04-11T01:57:54.084Z,4.53
2019-04-11T02:00:48.784Z,4.47
2019-04-11T02:03:21.649Z,4.77
2019-04-11T02:05:51.607Z,5.30
2019-04-11T02:08:20.645Z,4.67
2019-04-11T02:10:50.798Z,5.13
2019-04-11T02:13:19.878Z,4.80
2019-04-11T02:15:48.899Z,4.93
2019-04-11T02:18:17.838Z,4.57
2019-04-11T02:20:47.311Z,4.63
2019-04-11T02:23:21.518Z,4.90
2019-04-11T02:26:09.910Z,4.77
2019-04-11T02:28:39.589Z,4.77
2019-04-11T02:31:10.176Z,4.53
2019-04-11T02:33:39.024Z,5.00
2019-04-11T02:36:09.526Z,5.03
2019-04-11T02:38:39.096Z,4.93
2019-04-11T02:41:09.835Z,4.77
2019-04-11T02:43:40.689Z,4.60
2019-04-11T02:46:17.269Z,5.03
2019-04-11T02:48:40.481Z,4.63
2019-04-11T02:51:09.853Z,5.03
2019-04-11T02:53:38.911Z,4.47
2019-04-11T02:56:09.302Z,4.53
2019-04-11T02:58:39.267Z,4.97
2019-04-11T03:01:10.431Z,4.57
2019-04-11T03:03:39.493Z,4.77
2019-04-11T03:06:09.688Z,4.67
2019-04-11T03:08:40.793Z,4.77
2019-04-11T03:11:10.616Z,5.67
2019-04-11T03:13:39.581Z,4.97
2019-04-11T03:16:24.752Z,5.70
2019-04-11T03:18:54.857Z,4.60
2019-04-11T03:21:14.598Z,4.87
2019-04-11T03:23:40.191Z,5.03
2019-04-11T03:26:11.812Z,5.13
2019-04-11T03:28:42.456Z,4.47
2019-04-11T03:31:50.535Z,5.57
2019-04-11T03:34:30.549Z,5.30
2019-04-11T03:39:05.993Z,5.33
2019-04-11T03:41:31.988Z,4.87
2019-04-11T03:43:58.305Z,5.00
2019-04-11T03:46:35.367Z,4.80
2019-04-11T03:48:59.890Z,5.37
2019-04-11T03:51:20.990Z,5.07
2019-04-11T03:53:51.614Z,5.50
2019-04-11T03:56:22.028Z,5.13
2019-04-11T03:58:50.645Z,5.63
2019-04-11T04:01:21.086Z,5.37
2019-04-11T04:03:51.088Z,5.40
2019-04-11T04:06:21.053Z,6.00
2019-04-11T04:08:50.870Z,5.87
2019-04-11T04:11:26.960Z,5.30
2019-04-11T04:14:14.376Z,5.30
2019-04-11T04:17:03.807Z,5.67
2019-04-11T04:19:40.131Z,5.60
2019-04-11T04:22:29.230Z,5.93
2019-04-11T04:24:58.890Z,5.57
2019-04-11T04:27:30.067Z,5.90
2019-04-11T04:30:02.206Z,5.53
2019-04-11T04:32:30.413Z,5.50
2019-04-11T04:35:01.158Z,6.87
2019-04-11T04:37:31.741Z,5.90
2019-04-11T04:40:17.921Z,6.43
2019-04-11T04:42:38.912Z,6.20
2019-04-11T04:45:04.818Z,5.47
2019-04-11T04:47:42.674Z,6.80
2019-04-11T04:50:06.383Z,6.97
2019-04-11T04:52:36.584Z,6.07
2019-04-11T04:55:06.492Z,6.40
2019-04-11T04:57:37.662Z,6.60
2019-04-11T05:00:07.279Z,6.47
2019-04-11T05:02:37.366Z,5.93
2019-04-11T05:05:06.765Z,6.33
2019-04-11T05:07:40.177Z,7.33
2019-04-11T05:10:08.888Z,7.30
2019-04-11T05:12:38.853Z,7.00
2019-04-11T05:15:08.168Z,7.40
2019-04-11T05:17:38.550Z,7.97
2019-04-11T05:20:09.222Z,7.33
2019-04-11T05:22:39.333Z,6.07
2019-04-11T05:25:08.752Z,6.50
2019-04-11T05:27:38.013Z,7.20
2019-04-11T05:30:08.292Z,8.37
2019-04-11T05:32:39.537Z,6.90
2019-04-11T05:35:08.999Z,6.97
2019-04-11T05:37:39.647Z,6.80
2019-04-11T05:40:09.305Z,7.57
2019-04-11T05:42:38.283Z,6.93
2019-04-11T05:45:15.237Z,7.57
2019-04-11T05:47:39.319Z,7.37
2019-04-11T05:50:28.585Z,7.60
2019-04-11T05:53:01.174Z,7.87
2019-04-11T05:55:32.133Z,7.83
2019-04-11T05:58:05.831Z,7.13
2019-04-11T06:00:39.150Z,8.13
2019-04-11T06:03:10.077Z,7.63
2019-04-11T06:06:04.792Z,7.60
2019-04-11T06:08:34.047Z,7.87
2019-04-11T06:11:20.901Z,7.97
2019-04-11T06:14:07.373Z,8.13
2019-04-11T06:16:44.908Z,8.20
2019-04-11T06:19:25.430Z,8.40
2019-04-11T06:21:58.749Z,7.77
2019-04-11T06:24:45.458Z,8.17
2019-04-11T06:27:38.025Z,8.10
2019-04-11T06:30:42.358Z,8.80
2019-04-11T06:33:18.506Z,8.53
2019-04-11T06:36:13.778Z,9.10
2019-04-11T06:38:49.261Z,8.07
2019-04-11T06:41:36.917Z,8.77
2019-04-11T06:44:43.369Z,8.53
2019-04-11T06:47:34.687Z,8.27
2019-04-11T06:50:28.086Z,8.03
2019-04-11T06:52:58.191Z,8.27
2019-04-11T06:55:45.138Z,8.60
2019-04-11T06:58:25.520Z,7.83
2019-04-11T07:00:59.510Z,7.70
2019-04-11T07:03:32.461Z,7.90
2019-04-11T07:06:07.008Z,8.83
2019-04-11T07:08:44.790Z,8.87
2019-04-11T07:11:15.641Z,7.60
2019-04-11T07:13:55.511Z,7.70
2019-04-11T07:16:25.413Z,7.47
2019-04-11T07:19:32.134Z,8.37
2019-04-11T07:22:01.414Z,9.20
2019-04-11T07:24:49.784Z,7.13
2019-04-11T07:27:20.109Z,7.47
2019-04-11T07:30:09.350Z,7.60
2019-04-11T07:32:38.901Z,8.20
2019-04-11T07:35:30.282Z,7.10
2019-04-11T07:37:58.810Z,7.17
2019-04-11T07:40:56.204Z,7.03
2019-04-11T07:43:36.881Z,7.13
2019-04-11T07:46:25.478Z,7.17
2019-04-11T07:49:01.500Z,7.83
2019-04-11T07:51:43.009Z,7.27
2019-04-11T07:54:14.345Z,7.73
2019-04-11T07:56:55.314Z,7.13
2019-04-11T07:59:55.683Z,7.07
2019-04-11T08:02:55.847Z,6.87
2019-04-11T08:05:38.869Z,7.17
2019-04-11T08:08:25.838Z,6.90
2019-04-11T08:11:17.724Z,7.30
2019-04-11T08:14:06.363Z,7.27
2019-04-11T08:16:55.360Z,7.47
2019-04-11T08:19:42.883Z,6.83
2019-04-11T08:22:30.604Z,6.97
2019-04-11T08:25:07.182Z,8.60
2019-04-11T08:27:49.996Z,7.30
2019-04-11T08:30:08.887Z,9.33
2019-04-11T08:32:58.289Z,7.37
2019-04-11T08:35:52.955Z,8.63
2019-04-11T08:38:24.856Z,7.40
2019-04-11T08:41:01.067Z,7.53
2019-04-11T08:43:31.579Z,7.90
2019-04-11T08:46:22.601Z,8.03
2019-04-11T08:48:53.620Z,7.83
2019-04-11T08:51:23.239Z,7.43
2019-04-11T08:54:11.186Z,7.13
2019-04-11T08:56:41.111Z,7.27
2019-04-11T08:59:46.120Z,7.00
2019-04-11T09:02:22.236Z,7.13
2019-04-11T09:05:11.591Z,7.73
2019-04-11T09:07:38.561Z,7.40
2019-04-11T09:10:29.384Z,7.87
2019-04-11T09:13:15.203Z,7.30
2019-04-11T09:16:01.729Z,7.20
2019-04-11T09:18:30.876Z,7.00
2019-04-11T09:21:18.198Z,7.43
2019-04-11T09:23:46.804Z,7.23
2019-04-11T09:26:34.103Z,6.90
2019-04-11T09:29:04.043Z,7.37
2019-04-11T09:31:51.771Z,6.87
2019-04-11T09:34:44.101Z,7.13
2019-04-11T09:37:35.848Z,7.33
2019-04-11T09:40:24.475Z,7.03
2019-04-11T09:43:28.226Z,7.20
2019-04-11T09:46:32.390Z,6.87
2019-04-11T09:49:10.820Z,7.37
2019-04-11T09:52:02.421Z,7.10
2019-04-11T09:54:38.185Z,6.63
2019-04-11T09:57:41.923Z,6.20
2019-04-11T10:00:32.883Z,6.87
2019-04-11T10:03:04.965Z,6.40
2019-04-11T10:05:51.785Z,6.97
2019-04-11T10:08:37.312Z,6.90
2019-04-11T10:11:34.672Z,7.80
2019-04-11T10:14:09.282Z,6.43
2019-04-11T10:16:56.088Z,7.67
2019-04-11T10:19:32.125Z,6.60
2019-04-11T10:22:18.580Z,6.90
2019-04-11T10:25:01.758Z,6.40
2019-04-11T10:28:09.202Z,6.97
2019-04-11T10:30:55.834Z,6.73
2019-04-11T10:33:50.017Z,7.17
2019-04-11T10:36:21.374Z,6.67
2019-04-11T10:38:55.083Z,6.80
2019-04-11T10:41:49.147Z,7.47
2019-04-11T10:44:23.546Z,6.87
2019-04-11T10:46:55.853Z,7.60
2019-04-11T10:49:52.986Z,7.37
2019-04-11T10:52:30.876Z,7.50
2019-04-11T10:55:09.410Z,6.73
2019-04-11T10:57:43.030Z,7.47
2019-04-11T11:00:39.866Z,7.20
2019-04-11T11:03:30.697Z,7.60
2019-04-11T11:06:00.373Z,6.77
2019-04-11T11:08:34.308Z,7.30
2019-04-11T11:11:08.166Z,6.97
2019-04-11T11:13:54.284Z,7.77
2019-04-11T11:16:30.159Z,7.13
2019-04-11T11:19:51.516Z,7.53
2019-04-11T11:22:23.814Z,8.43
2019-04-11T11:25:16.440Z,7.37
2019-04-11T11:27:44.495Z,6.83
2019-04-11T11:30:51.954Z,7.10
2019-04-11T11:33:23.907Z,7.20
2019-04-11T11:36:13.084Z,7.20
2019-04-11T11:38:46.036Z,7.60
2019-04-11T11:41:36.763Z,7.50
2019-04-11T11:44:05.628Z,7.50
2019-04-11T11:47:03.901Z,7.60
2019-04-11T11:49:47.673Z,7.30
2019-04-11T11:52:21.306Z,7.10
2019-04-11T11:54:51.894Z,7.77
2019-04-11T11:57:27.155Z,7.57
2019-04-11T12:00:00.900Z,7.40
2019-04-11T12:02:34.838Z,7.87
2019-04-11T12:05:26.684Z,6.50
2019-04-11T12:08:00.524Z,7.63
2019-04-11T12:10:45.782Z,7.50
2019-04-11T12:13:43.271Z,7.93
2019-04-11T12:16:21.924Z,7.30
2019-04-11T12:19:18.083Z,6.93
2019-04-11T12:21:48.596Z,7.63
2019-04-11T12:24:34.494Z,7.90
2019-04-11T12:27:35.204Z,7.53
2019-04-11T12:30:23.818Z,7.40
2019-04-11T12:32:59.237Z,7.10
2019-04-11T12:35:38.030Z,7.63
2019-04-11T12:38:20.398Z,7.30
2019-04-11T12:41:06.761Z,7.20
2019-04-11T12:44:09.748Z,7.23
2019-04-11T12:46:56.052Z,7.20
2019-04-11T12:49:36.872Z,6.63
2019-04-11T12:52:30.616Z,6.87
2019-04-11T12:54:59.576Z,7.00
2019-04-11T12:57:46.146Z,7.43
2019-04-11T13:00:26.334Z,6.37
2019-04-11T13:03:23.084Z,7.00
2019-04-11T13:05:54.520Z,6.57
2019-04-11T13:08:41.236Z,7.03
2019-04-11T13:11:10.376Z,6.67
2019-04-11T13:13:51.224Z,6.87
2019-04-11T13:16:19.812Z,6.87
2019-04-11T13:19:01.588Z,7.10
2019-04-11T13:21:35.948Z,7.20
2019-04-11T13:24:22.662Z,7.40
2019-04-11T13:27:09.328Z,8.60
2019-04-11T13:30:03.124Z,7.33
2019-04-11T13:32:49.505Z,7.17
2019-04-11T13:35:45.968Z,8.00
2019-04-11T13:38:35.778Z,8.47
2019-04-11T13:41:12.412Z,8.43
2019-04-11T13:44:15.503Z,8.93
2019-04-11T13:47:06.086Z,9.27
2019-04-11T13:49:40.168Z,9.77
2019-04-11T13:52:26.894Z,8.57
2019-04-11T13:55:29.746Z,8.53
2019-04-11T13:58:21.020Z,9.10
2019-04-11T14:00:56.713Z,8.40
2019-04-11T14:03:44.378Z,8.03
2019-04-11T14:06:29.997Z,9.27
2019-04-11T14:09:23.598Z,8.87
2019-04-11T14:11:53.445Z,8.63
2019-04-11T14:14:28.124Z,8.37
2019-04-11T14:17:15.751Z,7.67
2019-04-11T14:20:12.717Z,6.93
2019-04-11T14:23:14.710Z,7.00
2019-04-11T14:26:14.409Z,6.90
2019-04-11T14:28:49.164Z,7.10
2019-04-11T14:31:39.845Z,6.77
2019-04-11T14:34:29.283Z,6.50
2019-04-11T14:37:37.778Z,8.40
2019-04-11T14:40:10.689Z,6.70
2019-04-11T14:42:55.923Z,7.50
2019-04-11T14:45:43.793Z,8.10
2019-04-11T14:48:14.093Z,7.30
2019-04-11T14:51:07.821Z,8.23
2019-04-11T14:53:50.465Z,7.77
2019-04-11T14:56:21.814Z,7.00
2019-04-11T14:59:06.422Z,7.03
2019-04-11T15:01:34.998Z,6.60
2019-04-11T15:04:32.382Z,7.47
2019-04-11T15:07:00.838Z,7.10
2019-04-11T15:09:47.299Z,7.47
2019-04-11T15:12:21.218Z,7.07
2019-04-11T15:15:11.982Z,6.80
2019-04-11T15:17:40.959Z,7.60
2019-04-11T15:20:38.051Z,7.10
2019-04-11T15:23:19.174Z,7.60
2019-04-11T15:26:09.866Z,7.50
2019-04-11T15:28:52.918Z,7.43
2019-04-11T15:31:39.227Z,7.27
2019-04-11T15:34:29.479Z,6.50
2019-04-11T15:37:15.814Z,7.37
2019-04-11T15:40:02.587Z,7.47
2019-04-11T15:42:49.076Z,7.53
2019-04-11T15:45:36.726Z,7.30
2019-04-11T15:48:30.588Z,6.67
2019-04-11T15:51:17.871Z,7.10
2019-04-11T15:54:04.754Z,6.87
2019-04-11T15:57:02.947Z,6.90
2019-04-11T15:59:54.343Z,7.10
2019-04-11T16:03:00.670Z,5.97
2019-04-11T16:05:48.299Z,6.27
2019-04-11T16:08:25.095Z,6.30
2019-04-11T16:11:15.807Z,6.50
2019-04-11T16:13:51.227Z,6.53
2019-04-11T16:16:22.444Z,6.20
2019-04-11T16:19:08.776Z,7.40
2019-04-11T16:21:56.755Z,5.87
2019-04-11T16:24:30.188Z,5.90
2019-04-11T16:27:07.003Z,5.60
2019-04-11T16:29:42.926Z,6.33
2019-04-11T16:32:13.372Z,5.93
2019-04-11T16:34:51.553Z,5.80
2019-04-11T16:37:18.707Z,6.30
2019-04-11T16:40:05.221Z,6.37
2019-04-11T16:42:45.571Z,6.00
2019-04-11T16:45:33.839Z,5.60
2019-04-11T16:48:05.187Z,6.57
2019-04-11T16:50:33.675Z,6.03
2019-04-11T16:53:02.191Z,5.80
2019-04-11T16:55:30.972Z,5.90
2019-04-11T16:57:59.364Z,5.70
2019-04-11T17:00:27.789Z,6.00
2019-04-11T17:02:56.526Z,5.30
2019-04-11T17:05:26.809Z,5.30
2019-04-11T17:08:20.848Z,5.70
2019-04-11T17:11:01.880Z,5.60
2019-04-11T17:13:32.447Z,5.47
2019-04-11T17:16:01.012Z,5.50
2019-04-11T17:18:29.432Z,6.30
2019-04-11T17:20:58.084Z,5.83
2019-04-11T17:23:26.932Z,5.60
2019-04-11T17:25:55.853Z,7.00
2019-04-11T17:28:24.344Z,5.83
2019-04-11T17:30:55.221Z,5.80
2019-04-11T17:33:23.013Z,5.37
2019-04-11T17:35:51.485Z,4.90
2019-04-11T17:38:20.045Z,5.77
2019-04-11T17:40:48.521Z,4.83
2019-04-11T17:43:16.924Z,5.03
2019-04-11T17:45:45.413Z,5.10
2019-04-11T17:48:13.888Z,4.90
2019-04-11T17:50:42.368Z,4.60
2019-04-11T17:53:10.889Z,5.03
2019-04-11T17:55:39.409Z,5.40
2019-04-11T17:58:07.893Z,4.87
2019-04-11T18:00:39.218Z,4.90
2019-04-11T18:03:11.756Z,4.70
2019-04-11T18:05:38.022Z,4.77
2019-04-11T18:08:06.586Z,4.90
2019-04-11T18:10:34.986Z,4.70
2019-04-11T18:13:03.577Z,4.80
2019-04-11T18:15:32.221Z,5.30
2019-04-11T18:18:00.641Z,6.07
2019-04-11T18:20:29.051Z,4.83
2019-04-11T18:22:57.477Z,5.23
2019-04-11T18:25:25.957Z,5.17
2019-04-11T18:27:54.573Z,5.60
2019-04-11T18:30:23.973Z,6.33
2019-04-11T18:32:52.896Z,5.77
2019-04-11T18:35:21.450Z,5.77
2019-04-11T18:37:49.914Z,5.20
2019-04-11T18:40:18.457Z,5.00
2019-04-11T18:42:47.154Z,5.10
2019-04-11T18:45:16.642Z,5.40
2019-04-11T18:47:45.494Z,5.73
2019-04-11T18:50:14.290Z,4.83
2019-04-11T18:52:42.762Z,4.53
2019-04-11T18:55:11.740Z,4.00
2019-04-11T18:57:40.490Z,4.40
2019-04-11T19:00:10.326Z,4.10
2019-04-11T19:02:40.230Z,4.33
2019-04-11T19:05:10.928Z,4.50
2019-04-11T19:07:42.819Z,5.10
2019-04-11T19:10:14.365Z,6.67
2019-04-11T19:12:39.714Z,5.43
2019-04-11T19:15:08.282Z,5.47
2019-04-11T19:17:36.774Z,4.87
2019-04-11T19:20:05.486Z,4.27
2019-04-11T19:22:37.478Z,3.97
2019-04-11T19:25:04.518Z,4.00
2019-04-11T19:27:32.911Z,4.60
2019-04-11T19:30:01.720Z,4.43
2019-04-11T19:32:30.214Z,4.50
2019-04-11T19:34:58.626Z,4.50
2019-04-11T19:37:27.415Z,4.33
2019-04-11T19:39:55.899Z,3.93
2019-04-11T19:42:24.810Z,4.30
2019-04-11T19:44:53.324Z,3.97
2019-04-11T19:47:22.374Z,4.10
2019-04-11T19:49:50.987Z,4.13
2019-04-11T19:52:19.563Z,4.70
2019-04-11T19:54:48.068Z,4.17
2019-04-11T19:57:16.483Z,5.23
2019-04-11T19:59:45.062Z,4.57
2019-04-11T20:02:13.787Z,4.43
2019-04-11T20:04:42.588Z,4.40
2019-04-11T20:07:11.597Z,4.57
2019-04-11T20:09:40.071Z,4.43
2019-04-11T20:12:08.475Z,4.67
2019-04-11T20:14:36.975Z,4.37
2019-04-11T20:17:05.487Z,4.20
2019-04-11T20:19:34.056Z,5.07
2019-04-11T20:22:02.828Z,5.73
2019-04-11T20:24:31.226Z,5.43
2019-04-11T20:26:59.632Z,5.63
2019-04-11T20:29:28.034Z,6.93
2019-04-11T20:31:56.700Z,5.37
2019-04-11T20:34:27.722Z,4.53
2019-04-11T20:36:55.633Z,5.50
2019-04-11T20:39:24.495Z,5.43
2019-04-11T20:41:53.608Z,5.77
2019-04-11T20:44:27.120Z,5.00
2019-04-11T20:46:53.064Z,5.17
2019-04-11T20:49:21.464Z,5.10
2019-04-11T20:51:49.872Z,4.80
2019-04-11T20:54:18.701Z,4.87
2019-04-11T20:56:47.116Z,4.40
2019-04-11T20:59:15.633Z,4.43
2019-04-11T21:01:44.067Z,5.20
2019-04-11T21:04:12.785Z,4.90
2019-04-11T21:06:41.548Z,4.43
2019-04-11T21:09:11.994Z,4.40
2019-04-11T21:11:40.417Z,4.23
2019-04-11T21:14:08.913Z,4.40
2019-04-11T21:16:37.331Z,4.63
2019-04-11T21:19:05.951Z,4.87
2019-04-11T21:21:34.356Z,4.60
2019-04-11T21:24:02.860Z,4.33
2019-04-11T21:26:31.352Z,4.70
2019-04-11T21:28:59.750Z,4.63
2019-04-11T21:31:30.840Z,5.30
2019-04-11T21:33:58.460Z,4.90
2019-04-11T21:36:27.091Z,5.23
2019-04-11T21:38:55.507Z,4.70
2019-04-11T21:41:23.944Z,4.40
2019-04-11T21:43:52.878Z,4.73
2019-04-11T21:46:21.275Z,4.40
2019-04-11T21:48:49.722Z,4.53
2019-04-11T21:51:18.165Z,4.50
2019-04-11T21:53:46.658Z,4.00
2019-04-11T21:56:15.939Z,4.43
2019-04-11T21:58:45.360Z,4.40
2019-04-11T22:01:15.020Z,4.03
2019-04-11T22:03:44.348Z,4.30
2019-04-11T22:06:12.842Z,4.23
2019-04-11T22:08:41.304Z,4.13
2019-04-11T22:11:10.655Z,4.10
2019-04-11T22:13:40.327Z,3.87
2019-04-11T22:16:13.158Z,4.00
2019-04-11T22:18:39.849Z,4.20
2019-04-11T22:21:08.336Z,4.47
2019-04-11T22:23:48.083Z,4.37
2019-04-11T22:26:07.329Z,4.33
2019-04-11T22:28:35.760Z,4.43
2019-04-11T22:31:04.249Z,4.10
2019-04-11T22:33:40.504Z,4.20
2019-04-11T22:36:08.885Z,3.90
2019-04-11T22:38:37.673Z,3.93
2019-04-11T22:41:06.201Z,3.90
2019-04-11T22:43:37.920Z,3.90
2019-04-11T22:46:07.719Z,3.60
2019-04-11T22:48:36.846Z,3.93
2019-04-11T22:51:05.870Z,3.87
2019-04-11T22:53:34.393Z,3.80
2019-04-11T22:56:03.545Z,3.50
2019-04-11T22:58:31.958Z,3.70
2019-04-11T23:01:00.513Z,3.90
2019-04-11T23:03:37.609Z,3.50
2019-04-11T23:06:06.117Z,3.40
2019-04-11T23:08:34.533Z,4.07
2019-04-11T23:11:03.289Z,3.60
2019-04-11T23:13:32.057Z,3.60
2019-04-11T23:16:00.796Z,3.70
2019-04-11T23:18:29.209Z,3.73
2019-04-11T23:20:57.705Z,3.57
2019-04-11T23:23:26.137Z,3.90
2019-04-11T23:25:54.995Z,3.87
2019-04-11T23:28:23.953Z,4.10
2019-04-11T23:30:52.513Z,3.50
2019-04-11T23:33:21.428Z,3.87
2019-04-11T23:35:51.152Z,3.50
2019-04-11T23:38:23.653Z,3.80
2019-04-11T23:40:51.226Z,3.30
2019-04-11T23:43:20.664Z,3.50
2019-04-11T23:45:51.284Z,3.40
2019-04-11T23:48:19.463Z,3.47
2019-04-11T23:50:47.946Z,3.43
2019-04-11T23:53:16.641Z,3.17
2019-04-11T23:55:45.046Z,3.00
2019-04-11T23:58:13.450Z,3.17
